Scholes International At Galveston Airport
KGLS : now visible

Airfield :











YOU CAN JOIN US ON...

 
LOGIN :

Register | Disclaimer

   EN    FR    IT 

 









Legend :    VFR   Marginal VFR   IFR   Intensive IFR   Very Intensive IFR
Visi :
Ceiling :
>= 8 km
>= 3000ft
5 to 8 km
1000 to 3000 ft
1500m to 5 km
500 to 1000 ft
800 to 1500m
200 to 500 ft
< 800m
< 200 ft
Symbols :   Thunderstorms  Fog  Heavy snow  Heavy precipitations  Wind > 20 kt







- Airport Elevation : 6 ft
- IATA code : GLS


KGLS - Scholes International At Galveston

CURRENT METAR :
  • 191152Z 31012KT 10SM CLR 16/09 A2997 RMK AO2 SLP147 70037 T01560089 10178 20156 53018

EXPIRED METARs :
  • 191052Z 30010KT 10SM CLR 16/09 A2992 RMK AO2 SLP133 T01610094
  • 190952Z AUTO 30011KT 10SM CLR 17/09 A2991 RMK AO2 SLP128 T01670094

TAF KGLS
Valid from the 19 at 12:00 until the 20 at 12:00 UTC


191120Z 1912/2012 30010KT P6SM SKC
FM191900 31022G32KT P6SM SKC
FM200200 33011KT P6SM SKC
FM200900 30004KT P6SM SKC
KZHU FIR / North America



MET'MAP, your aeronautical weather chart ! - Copyright ORBIFLY December 2007 - Disclaimer

ORBIFLY MET'MAP TEAM :

Programming & Development : Alexandra Zaïnal
Concept & Development : Baudouin d'Aumeries
Co-Development & Prog : Marc-Olivier Méhu
Technical & hardware support : Manuel Goepfert

Contact : metmap@orbifly.com




SOURCES & CREDITS :

   NOAA       Earth
Advisory